Time;durP1;ratioP1;P1;durP2;ratioP2;P2;SDS_P1;SDS_P2;PMS_P1;PMS_P2;Temp;Humidity;BMP_temperature;BMP_pressure;BME280_temperature;BME280_humidity;BME280_pressure;Samples;Min_cycle;Max_cycle;Signal;HPM_P1;HPM_P2
2023/07/31 00:00:08;;;;;;;;;;;;;;;;;;1271610;23;19912;-20
2023/07/31 00:00:39;;;;;;;;;;;;;;;;;;1271859;23;19908;-21
2023/07/31 00:01:09;;;;;;;;;;;;;;;;;;1271762;23;19905;-21
2023/07/31 00:01:39;;;;;;;;;;;;;;;;;;1271884;23;19905;-21
2023/07/31 00:02:09;;;;;;;;;;;;;;;;;;1271779;23;19912;-19
2023/07/31 00:02:39;;;;;;;;;;;;;;;;;;1271951;23;19905;-19
2023/07/31 00:03:10;;;;;;;;;;;;;;;;;;1271767;23;20322;-19
2023/07/31 00:03:40;;;;;;;;;;;;;;;;;;1271860;23;20280;-20
2023/07/31 00:04:10;;;;;;;;;;;;;;;;;;1271591;23;20360;-21
2023/07/31 00:04:40;;;;;;;;;;;;;;;;;;1271943;23;20223;-19
2023/07/31 00:05:11;;;;;;;;;;;;;;;;;;1271695;23;20237;-20
2023/07/31 00:05:41;;;;;;;;;;;;;;;;;;1271951;23;19913;-21
2023/07/31 00:06:11;;;;;;;;;;;;;;;;;;1271644;23;19912;-21
2023/07/31 00:06:41;;;;;;;;;;;;;;;;;;1271947;23;19912;-20
2023/07/31 00:07:12;;;;;;;;;;;;;;;;;;1271597;23;19904;-22
2023/07/31 00:07:42;;;;;;;;;;;;;;;;;;1271946;23;20356;-18
2023/07/31 00:08:12;;;;;;;;;;;;;;;;;;1271710;23;19911;-20
2023/07/31 00:08:43;;;;;;;;;;;;;;;;;;1271963;23;19909;-21
2023/07/31 00:09:13;;;;;;;;;;;;;;;;;;1271702;23;19905;-21
2023/07/31 00:09:43;;;;;;;;;;;;;;;;;;1271865;23;19915;-20
2023/07/31 00:10:13;;;;;;;;;;;;;;;;;;1271680;23;20234;-20
2023/07/31 00:10:44;;;;;;;;;;;;;;;;;;1271877;23;20241;-18
2023/07/31 00:11:14;;;;;;;;;;;;;;;;;;1271736;23;20213;-18
2023/07/31 00:11:44;;;;;;;;;;;;;;;;;;1271861;23;19908;-19
2023/07/31 00:12:14;;;;;;;;;;;;;;;;;;1271665;23;19963;-19
2023/07/31 00:12:44;;;;;;;;;;;;;;;;;;1271864;23;20081;-18
2023/07/31 00:13:15;;;;;;;;;;;;;;;;;;1271751;23;19905;-21
2023/07/31 00:13:45;;;;;;;;;;;;;;;;;;1271918;23;19909;-22
2023/07/31 00:14:15;;;;;;;;;;;;;;;;;;1271627;23;19905;-21
2023/07/31 00:14:45;;;;;;;;;;;;;;;;;;1271921;23;20024;-19
2023/07/31 00:15:16;;;;;;;;;;;;;;;;;;1271578;23;19924;-20
2023/07/31 00:15:46;;;;;;;;;;;;;;;;;;1271952;23;19908;-18
2023/07/31 00:16:16;;;;;;;;;;;;;;;;;;1271780;23;19905;-20
2023/07/31 00:16:46;;;;;;;;;;;;;;;;;;1271885;23;19916;-20
2023/07/31 00:17:16;;;;;;;;;;;;;;;;;;1271758;23;19905;-22
2023/07/31 00:17:47;;;;;;;;;;;;;;;;;;1271927;23;19954;-19
2023/07/31 00:18:17;;;;;;;;;;;;;;;;;;1271722;23;19938;-20
2023/07/31 00:18:48;;;;;;;;;;;;;;;;;;1265421;23;19928;-19
2023/07/31 00:19:18;;;;;;;;;;;;;;;;;;1265177;23;19911;-19
2023/07/31 00:19:50;;;;;;;;;;;;;;;;;;1265468;23;19909;-18
2023/07/31 00:20:20;;;;;;;;;;;;;;;;;;1265780;23;20261;-19
2023/07/31 00:20:50;;;;;;;;;;;;;;;;;;1271710;23;19913;-17
2023/07/31 00:21:21;;;;;;;;;;;;;;;;;;1271977;23;19954;-18
2023/07/31 00:21:51;;;;;;;;;;;;;;;;;;1271756;23;19908;-18
2023/07/31 00:22:21;;;;;;;;;;;;;;;;;;1271881;23;20337;-16
2023/07/31 00:22:52;;;;;;;;;;;;;;;;;;1271599;23;19966;-18
2023/07/31 00:23:22;;;;;;;;;;;;;;;;;;1265398;23;19912;-16
2023/07/31 00:23:52;;;;;;;;;;;;;;;;;;1265239;23;19932;-19
2023/07/31 00:24:23;;;;;;;;;;;;;;;;;;1265523;23;19905;-18
2023/07/31 00:24:53;;;;;;;;;;;;;;;;;;1265354;23;19908;-17
2023/07/31 00:25:23;;;;;;;;;;;;;;;;;;1271847;23;19990;-16
2023/07/31 00:25:53;;;;;;;;;;;;;;;;;;1271624;23;20000;-17
2023/07/31 00:26:24;;;;;;;;;;;;;;;;;;1271911;23;19918;-17
2023/07/31 00:26:54;;;;;;;;;;;;;;;;;;1271662;23;20214;-17
2023/07/31 00:27:24;;;;;;;;;;;;;;;;;;1271950;23;19905;-16
2023/07/31 00:27:54;;;;;;;;;;;;;;;;;;1271676;23;20337;-17
2023/07/31 00:28:25;;;;;;;;;;;;;;;;;;1271859;23;19911;-19
2023/07/31 00:28:55;;;;;;;;;;;;;;;;;;1271774;23;19905;-17
2023/07/31 00:29:25;;;;;;;;;;;;;;;;;;1271953;23;19904;-16
2023/07/31 00:29:55;;;;;;;;;;;;;;;;;;1271633;23;19905;-17
2023/07/31 00:30:26;;;;;;;;;;;;;;;;;;1271967;23;19911;-16
2023/07/31 00:30:57;;;;;;;;;;;;;;;;;;1271692;23;20229;-18
2023/07/31 00:31:27;;;;;;;;;;;;;;;;;;1271965;23;19912;-19
2023/07/31 00:31:57;;;;;;;;;;;;;;;;;;1271686;23;19990;-16
2023/07/31 00:32:27;;;;;;;;;;;;;;;;;;1271968;23;19913;-18
2023/07/31 00:32:58;;;;;;;;;;;;;;;;;;1271653;23;19948;-18
2023/07/31 00:33:28;;;;;;;;;;;;;;;;;;1272026;23;19988;-18
2023/07/31 00:33:58;;;;;;;;;;;;;;;;;;1271635;23;19904;-17
2023/07/31 00:34:28;;;;;;;;;;;;;;;;;;1271945;23;19951;-18
2023/07/31 00:34:59;;;;;;;;;;;;;;;;;;1271683;23;19904;-19
2023/07/31 00:35:29;;;;;;;;;;;;;;;;;;1271802;23;19912;-18
2023/07/31 00:35:59;;;;;;;;;;;;;;;;;;1271570;23;19911;-17
2023/07/31 00:36:30;;;;;;;;;;;;;;;;;;1271927;23;19928;-19
2023/07/31 00:37:00;;;;;;;;;;;;;;;;;;1271584;23;19993;-19
2023/07/31 00:37:30;;;;;;;;;;;;;;;;;;1271934;23;19974;-19
2023/07/31 00:38:00;;;;;;;;;;;;;;;;;;1271699;23;20055;-16
2023/07/31 00:38:31;;;;;;;;;;;;;;;;;;1271951;23;19911;-16
2023/07/31 00:39:01;;;;;;;;;;;;;;;;;;1271678;23;20388;-17
2023/07/31 00:39:31;;;;;;;;;;;;;;;;;;1271970;23;20003;-18
2023/07/31 00:40:03;;;;;;;;;;;;;;;;;;1271562;23;19979;-17
2023/07/31 00:40:33;;;;;;;;;;;;;;;;;;1271782;23;20349;-18
2023/07/31 00:41:04;;;;;;;;;;;;;;;;;;1271686;23;19908;-16
2023/07/31 00:41:34;;;;;;;;;;;;;;;;;;1271738;23;19905;-16
2023/07/31 00:42:05;;;;;;;;;;;;;;;;;;1271685;23;19905;-19
2023/07/31 00:42:35;;;;;;;;;;;;;;;;;;1271931;23;19908;-19
2023/07/31 00:43:05;;;;;;;;;;;;;;;;;;1271695;23;19912;-18
2023/07/31 00:43:35;;;;;;;;;;;;;;;;;;1272026;23;20306;-19
2023/07/31 00:44:05;;;;;;;;;;;;;;;;;;1271731;23;19995;-15
2023/07/31 00:44:36;;;;;;;;;;;;;;;;;;1271967;23;19911;-19
2023/07/31 00:45:06;;;;;;;;;;;;;;;;;;1271677;23;19904;-18
2023/07/31 00:45:36;;;;;;;;;;;;;;;;;;1271879;23;19909;-15
2023/07/31 00:46:06;;;;;;;;;;;;;;;;;;1271721;23;19905;-20
2023/07/31 00:46:37;;;;;;;;;;;;;;;;;;1271926;23;19905;-16
2023/07/31 00:47:07;;;;;;;;;;;;;;;;;;1271799;23;19905;-17
2023/07/31 00:47:37;;;;;;;;;;;;;;;;;;1271895;23;20114;-17
2023/07/31 00:48:08;;;;;;;;;;;;;;;;;;1271802;23;19916;-16
2023/07/31 00:48:38;;;;;;;;;;;;;;;;;;1271858;23;19912;-19
2023/07/31 00:49:08;;;;;;;;;;;;;;;;;;1271569;23;19927;-18
2023/07/31 00:49:38;;;;;;;;;;;;;;;;;;1271616;23;19912;-15
2023/07/31 00:50:08;;;;;;;;;;;;;;;;;;1271687;23;19912;-19
2023/07/31 00:50:39;;;;;;;;;;;;;;;;;;1271899;23;19905;-17
2023/07/31 00:51:09;;;;;;;;;;;;;;;;;;1271708;23;20162;-17
2023/07/31 00:51:39;;;;;;;;;;;;;;;;;;1271910;23;19920;-19
2023/07/31 00:52:09;;;;;;;;;;;;;;;;;;1271676;23;19904;-17
2023/07/31 00:52:40;;;;;;;;;;;;;;;;;;1271948;23;19937;-17
2023/07/31 00:53:10;;;;;;;;;;;;;;;;;;1271669;23;19905;-16
2023/07/31 00:53:40;;;;;;;;;;;;;;;;;;1271911;23;19944;-15
2023/07/31 00:54:10;;;;;;;;;;;;;;;;;;1271535;23;19983;-17
2023/07/31 00:54:40;;;;;;;;;;;;;;;;;;1271960;23;19917;-19
2023/07/31 00:55:11;;;;;;;;;;;;;;;;;;1271594;23;19912;-16
2023/07/31 00:55:41;;;;;;;;;;;;;;;;;;1271920;23;19913;-15
2023/07/31 00:56:11;;;;;;;;;;;;;;;;;;1271639;23;19905;-19
2023/07/31 00:56:42;;;;;;;;;;;;;;;;;;1271874;23;19913;-17
2023/07/31 00:57:12;;;;;;;;;;;;;;;;;;1271588;23;19905;-17
2023/07/31 00:57:43;;;;;;;;;;;;;;;;;;1271957;23;20444;-18
2023/07/31 00:58:13;;;;;;;;;;;;;;;;;;1271630;23;20318;-17
2023/07/31 00:58:43;;;;;;;;;;;;;;;;;;1271744;23;19909;-16
2023/07/31 00:59:13;;;;;;;;;;;;;;;;;;1271709;23;19912;-18
2023/07/31 00:59:43;;;;;;;;;;;;;;;;;;1271831;23;19934;-18
2023/07/31 01:00:14;;;;;;;;;;;;;;;;;;1271499;23;19912;-17
2023/07/31 01:00:44;;;;;;;;;;;;;;;;;;1271809;23;19909;-16
2023/07/31 01:01:14;;;;;;;;;;;;;;;;;;1271734;23;19909;-17
2023/07/31 01:01:44;;;;;;;;;;;;;;;;;;1271843;23;19955;-18
2023/07/31 01:02:15;;;;;;;;;;;;;;;;;;1271677;23;20279;-17
2023/07/31 01:02:45;;;;;;;;;;;;;;;;;;1271894;23;19908;-18
2023/07/31 01:03:15;;;;;;;;;;;;;;;;;;1271648;23;19905;-20
2023/07/31 01:03:45;;;;;;;;;;;;;;;;;;1271780;23;19909;-16
2023/07/31 01:04:15;;;;;;;;;;;;;;;;;;1271581;23;20002;-17
2023/07/31 01:04:46;;;;;;;;;;;;;;;;;;1271920;23;19954;-18
2023/07/31 01:05:16;;;;;;;;;;;;;;;;;;1271649;23;19905;-19
2023/07/31 01:05:46;;;;;;;;;;;;;;;;;;1271945;23;19909;-19
2023/07/31 01:06:16;;;;;;;;;;;;;;;;;;1271676;23;20310;-17
2023/07/31 01:06:47;;;;;;;;;;;;;;;;;;1271938;23;19908;-17
2023/07/31 01:07:17;;;;;;;;;;;;;;;;;;1271622;23;19965;-18
2023/07/31 01:07:47;;;;;;;;;;;;;;;;;;1271826;23;19908;-17
2023/07/31 01:08:17;;;;;;;;;;;;;;;;;;1271658;23;19966;-17
2023/07/31 01:08:47;;;;;;;;;;;;;;;;;;1271867;23;19970;-18
2023/07/31 01:09:18;;;;;;;;;;;;;;;;;;1271678;23;20010;-16
2023/07/31 01:09:48;;;;;;;;;;;;;;;;;;1271926;23;19912;-16
2023/07/31 01:10:18;;;;;;;;;;;;;;;;;;1265037;23;19911;-15
2023/07/31 01:10:48;;;;;;;;;;;;;;;;;;1265417;23;19909;-18
2023/07/31 01:11:19;;;;;;;;;;;;;;;;;;1265244;23;19905;-20
2023/07/31 01:11:50;;;;;;;;;;;;;;;;;;1265445;23;19915;-15
2023/07/31 01:12:20;;;;;;;;;;;;;;;;;;1265309;23;19991;-18
2023/07/31 01:12:50;;;;;;;;;;;;;;;;;;1265218;23;19909;-17
2023/07/31 01:13:21;;;;;;;;;;;;;;;;;;1265526;23;19905;-19
2023/07/31 01:13:51;;;;;;;;;;;;;;;;;;1265244;23;19909;-19
2023/07/31 01:14:21;;;;;;;;;;;;;;;;;;1271967;23;19999;-16
2023/07/31 01:14:51;;;;;;;;;;;;;;;;;;1271651;23;19995;-16
2023/07/31 01:15:21;;;;;;;;;;;;;;;;;;1271878;23;19905;-18
2023/07/31 01:15:52;;;;;;;;;;;;;;;;;;1271698;23;19905;-20
2023/07/31 01:16:22;;;;;;;;;;;;;;;;;;1271914;23;20237;-19
2023/07/31 01:16:52;;;;;;;;;;;;;;;;;;1271484;23;20253;-18
2023/07/31 01:17:22;;;;;;;;;;;;;;;;;;1271852;23;19950;-20
2023/07/31 01:17:53;;;;;;;;;;;;;;;;;;1271667;23;19904;-17
2023/07/31 01:18:23;;;;;;;;;;;;;;;;;;1271802;23;19905;-16
2023/07/31 01:18:53;;;;;;;;;;;;;;;;;;1271648;23;19904;-15
2023/07/31 01:19:23;;;;;;;;;;;;;;;;;;1271920;23;19912;-16
2023/07/31 01:19:53;;;;;;;;;;;;;;;;;;1271605;23;19905;-15
2023/07/31 01:20:24;;;;;;;;;;;;;;;;;;1271732;23;19963;-18
2023/07/31 01:20:54;;;;;;;;;;;;;;;;;;1271505;23;19995;-16
2023/07/31 01:21:24;;;;;;;;;;;;;;;;;;1271871;23;20364;-18
2023/07/31 01:21:54;;;;;;;;;;;;;;;;;;1271614;23;19905;-17
2023/07/31 01:22:25;;;;;;;;;;;;;;;;;;1271894;23;19912;-18
2023/07/31 01:22:55;;;;;;;;;;;;;;;;;;1271641;23;19927;-17
2023/07/31 01:23:25;;;;;;;;;;;;;;;;;;1271940;23;19940;-17
2023/07/31 01:23:55;;;;;;;;;;;;;;;;;;1271644;23;19905;-17
2023/07/31 01:24:26;;;;;;;;;;;;;;;;;;1271902;23;19987;-19
2023/07/31 01:24:56;;;;;;;;;;;;;;;;;;1271652;23;19905;-17
2023/07/31 01:25:26;;;;;;;;;;;;;;;;;;1271838;23;19904;-15
2023/07/31 01:25:56;;;;;;;;;;;;;;;;;;1271666;23;19905;-18
2023/07/31 01:26:26;;;;;;;;;;;;;;;;;;1271865;23;19912;-15
2023/07/31 01:26:57;;;;;;;;;;;;;;;;;;1271605;23;19911;-15
2023/07/31 01:27:27;;;;;;;;;;;;;;;;;;1271863;23;19905;-17
2023/07/31 01:27:57;;;;;;;;;;;;;;;;;;1271650;23;19919;-16
2023/07/31 01:28:28;;;;;;;;;;;;;;;;;;1271874;23;19962;-19
2023/07/31 01:28:59;;;;;;;;;;;;;;;;;;1271603;23;19912;-18
2023/07/31 01:29:30;;;;;;;;;;;;;;;;;;1271800;23;19904;-17
2023/07/31 01:30:00;;;;;;;;;;;;;;;;;;1271566;23;19912;-18
2023/07/31 01:30:31;;;;;;;;;;;;;;;;;;1271520;23;19915;-17
2023/07/31 01:31:01;;;;;;;;;;;;;;;;;;1271543;23;19905;-18
2023/07/31 01:31:31;;;;;;;;;;;;;;;;;;1271747;23;19905;-16
2023/07/31 01:32:02;;;;;;;;;;;;;;;;;;1271549;23;19904;-15
2023/07/31 01:32:32;;;;;;;;;;;;;;;;;;1271863;23;19912;-16
2023/07/31 01:33:06;;;;;;;;;;;;;;;;;;1271611;23;20317;-15
2023/07/31 01:33:36;;;;;;;;;;;;;;;;;;1271866;23;19932;-16
2023/07/31 01:34:06;;;;;;;;;;;;;;;;;;1271614;23;19905;-18
2023/07/31 01:34:37;;;;;;;;;;;;;;;;;;1271913;23;19905;-17
2023/07/31 01:35:08;;;;;;;;;;;;;;;;;;1271713;23;19911;-20
2023/07/31 01:35:38;;;;;;;;;;;;;;;;;;1271698;23;19915;-18
2023/07/31 01:36:08;;;;;;;;;;;;;;;;;;1271566;23;19927;-19
2023/07/31 01:36:39;;;;;;;;;;;;;;;;;;1271841;23;19905;-20
2023/07/31 01:37:09;;;;;;;;;;;;;;;;;;1271687;23;20436;-19
2023/07/31 01:37:39;;;;;;;;;;;;;;;;;;1271869;23;19911;-16
2023/07/31 01:38:09;;;;;;;;;;;;;;;;;;1271635;23;19904;-22
2023/07/31 01:38:39;;;;;;;;;;;;;;;;;;1271897;23;19911;-19
2023/07/31 01:39:10;;;;;;;;;;;;;;;;;;1271556;23;19905;-20
2023/07/31 01:39:40;;;;;;;;;;;;;;;;;;1271783;23;19912;-22
2023/07/31 01:40:10;;;;;;;;;;;;;;;;;;1271482;23;19904;-22
2023/07/31 01:40:40;;;;;;;;;;;;;;;;;;1271871;23;19936;-21
2023/07/31 01:41:11;;;;;;;;;;;;;;;;;;1271649;23;20030;-18
2023/07/31 01:41:41;;;;;;;;;;;;;;;;;;1271901;23;19995;-17
2023/07/31 01:42:11;;;;;;;;;;;;;;;;;;1271430;23;19954;-18
2023/07/31 01:42:41;;;;;;;;;;;;;;;;;;1271876;23;19912;-20
2023/07/31 01:43:11;;;;;;;;;;;;;;;;;;1271554;23;19904;-22
2023/07/31 01:43:42;;;;;;;;;;;;;;;;;;1271885;23;19909;-21
2023/07/31 01:44:12;;;;;;;;;;;;;;;;;;1270766;23;19912;-20
2023/07/31 01:44:42;;;;;;;;;;;;;;;;;;1271860;23;19916;-16
2023/07/31 01:45:12;;;;;;;;;;;;;;;;;;1271504;23;19912;-22
2023/07/31 01:45:43;;;;;;;;;;;;;;;;;;1271697;23;19908;-21
2023/07/31 01:46:13;;;;;;;;;;;;;;;;;;1271699;23;19905;-20
2023/07/31 01:46:43;;;;;;;;;;;;;;;;;;1271879;23;20349;-17
2023/07/31 01:47:13;;;;;;;;;;;;;;;;;;1271645;23;20278;-19
2023/07/31 01:47:43;;;;;;;;;;;;;;;;;;1271870;23;20258;-21
2023/07/31 01:48:14;;;;;;;;;;;;;;;;;;1271530;23;19927;-16
2023/07/31 01:48:44;;;;;;;;;;;;;;;;;;1271743;23;19909;-19
2023/07/31 01:49:14;;;;;;;;;;;;;;;;;;1271739;23;19951;-20
2023/07/31 01:49:44;;;;;;;;;;;;;;;;;;1271819;23;19909;-20
2023/07/31 01:50:15;;;;;;;;;;;;;;;;;;1271577;23;19904;-22
2023/07/31 01:50:45;;;;;;;;;;;;;;;;;;1271842;23;19908;-20
2023/07/31 01:51:15;;;;;;;;;;;;;;;;;;1271663;23;19904;-18
2023/07/31 01:51:45;;;;;;;;;;;;;;;;;;1271200;23;19941;-19
2023/07/31 01:52:15;;;;;;;;;;;;;;;;;;1271471;23;19936;-20
2023/07/31 01:52:46;;;;;;;;;;;;;;;;;;1271712;23;19928;-21
2023/07/31 01:53:16;;;;;;;;;;;;;;;;;;1271595;23;19986;-21
2023/07/31 01:53:46;;;;;;;;;;;;;;;;;;1271834;23;19947;-20
2023/07/31 01:54:16;;;;;;;;;;;;;;;;;;1271594;23;19904;-20
2023/07/31 01:54:47;;;;;;;;;;;;;;;;;;1271859;23;19909;-21
2023/07/31 01:55:17;;;;;;;;;;;;;;;;;;1271567;23;19911;-19
2023/07/31 01:55:47;;;;;;;;;;;;;;;;;;1271809;23;19909;-18
2023/07/31 01:56:17;;;;;;;;;;;;;;;;;;1271602;23;19930;-20
2023/07/31 01:56:47;;;;;;;;;;;;;;;;;;1271790;23;19913;-19
2023/07/31 01:57:18;;;;;;;;;;;;;;;;;;1271667;23;19912;-22
2023/07/31 01:57:48;;;;;;;;;;;;;;;;;;1271840;23;19916;-19
2023/07/31 01:58:18;;;;;;;;;;;;;;;;;;1271581;23;19928;-17
2023/07/31 01:58:48;;;;;;;;;;;;;;;;;;1271881;23;19909;-19
2023/07/31 01:59:19;;;;;;;;;;;;;;;;;;1271644;23;19912;-18
2023/07/31 01:59:49;;;;;;;;;;;;;;;;;;1271777;23;19909;-18
2023/07/31 02:00:19;;;;;;;;;;;;;;;;;;1271624;23;19908;-20
2023/07/31 02:00:49;;;;;;;;;;;;;;;;;;1271537;23;20392;-20
2023/07/31 02:01:20;;;;;;;;;;;;;;;;;;1271384;23;19987;-16
2023/07/31 02:01:50;;;;;;;;;;;;;;;;;;1271624;23;19973;-17
2023/07/31 02:02:20;;;;;;;;;;;;;;;;;;1271765;23;20272;-19
2023/07/31 02:02:51;;;;;;;;;;;;;;;;;;1270783;23;19909;-21
2023/07/31 02:03:21;;;;;;;;;;;;;;;;;;1271885;23;19933;-18
2023/07/31 02:03:51;;;;;;;;;;;;;;;;;;1270780;23;20034;-18
2023/07/31 02:04:21;;;;;;;;;;;;;;;;;;1271381;23;20234;-21
2023/07/31 02:04:52;;;;;;;;;;;;;;;;;;1271282;23;19905;-20
2023/07/31 02:05:22;;;;;;;;;;;;;;;;;;1271818;23;19991;-19
2023/07/31 02:05:52;;;;;;;;;;;;;;;;;;1270695;23;19904;-20
2023/07/31 02:06:22;;;;;;;;;;;;;;;;;;1271041;23;19911;-20
2023/07/31 02:06:53;;;;;;;;;;;;;;;;;;1271519;23;19905;-18
2023/07/31 02:07:23;;;;;;;;;;;;;;;;;;1271822;23;20279;-20
2023/07/31 02:07:53;;;;;;;;;;;;;;;;;;1271544;23;19958;-21
2023/07/31 02:08:24;;;;;;;;;;;;;;;;;;1271892;23;19987;-20
2023/07/31 02:08:54;;;;;;;;;;;;;;;;;;1271484;23;19912;-19
2023/07/31 02:09:24;;;;;;;;;;;;;;;;;;1271854;23;19912;-17
2023/07/31 02:09:54;;;;;;;;;;;;;;;;;;1271563;23;19904;-17
2023/07/31 02:10:24;;;;;;;;;;;;;;;;;;1271646;23;19947;-20
2023/07/31 02:10:55;;;;;;;;;;;;;;;;;;1271490;23;19919;-21
2023/07/31 02:11:25;;;;;;;;;;;;;;;;;;1271468;23;19909;-20
2023/07/31 02:11:55;;;;;;;;;;;;;;;;;;1270946;23;19905;-22
2023/07/31 02:12:25;;;;;;;;;;;;;;;;;;1271780;23;19905;-18
2023/07/31 02:12:57;;;;;;;;;;;;;;;;;;1265038;23;19905;-22
2023/07/31 02:13:27;;;;;;;;;;;;;;;;;;1265307;23;20321;-19
2023/07/31 02:13:58;;;;;;;;;;;;;;;;;;1265062;23;19912;-20
2023/07/31 02:14:28;;;;;;;;;;;;;;;;;;1265635;23;19920;-20
2023/07/31 02:14:58;;;;;;;;;;;;;;;;;;1271564;23;19912;-19
2023/07/31 02:15:28;;;;;;;;;;;;;;;;;;1271749;23;19940;-18
2023/07/31 02:15:59;;;;;;;;;;;;;;;;;;1271496;23;19904;-19
2023/07/31 02:16:29;;;;;;;;;;;;;;;;;;1271119;23;19932;-19
2023/07/31 02:16:59;;;;;;;;;;;;;;;;;;1271478;23;19904;-19
2023/07/31 02:17:30;;;;;;;;;;;;;;;;;;1271731;23;19911;-20
2023/07/31 02:18:00;;;;;;;;;;;;;;;;;;1271486;23;19905;-22
2023/07/31 02:18:30;;;;;;;;;;;;;;;;;;1271829;23;19998;-19
2023/07/31 02:19:00;;;;;;;;;;;;;;;;;;1271583;23;19987;-18
2023/07/31 02:19:30;;;;;;;;;;;;;;;;;;1271870;23;19990;-21
2023/07/31 02:20:01;;;;;;;;;;;;;;;;;;1271564;23;19953;-20
2023/07/31 02:20:31;;;;;;;;;;;;;;;;;;1270846;23;19970;-20
2023/07/31 02:21:01;;;;;;;;;;;;;;;;;;1271482;23;19912;-20
2023/07/31 02:21:32;;;;;;;;;;;;;;;;;;1271741;23;19905;-20
2023/07/31 02:22:02;;;;;;;;;;;;;;;;;;1271493;23;19904;-20
2023/07/31 02:22:32;;;;;;;;;;;;;;;;;;1270687;23;20377;-22
2023/07/31 02:23:02;;;;;;;;;;;;;;;;;;1271095;23;20726;-22
2023/07/31 02:23:32;;;;;;;;;;;;;;;;;;1271854;23;20241;-20
2023/07/31 02:24:03;;;;;;;;;;;;;;;;;;1271448;23;19950;-21
2023/07/31 02:24:33;;;;;;;;;;;;;;;;;;1271454;23;19942;-19
2023/07/31 02:25:03;;;;;;;;;;;;;;;;;;1264670;23;19987;-20
2023/07/31 02:25:33;;;;;;;;;;;;;;;;;;1265112;23;20252;-21
2023/07/31 02:26:04;;;;;;;;;;;;;;;;;;1264989;23;19995;-22
2023/07/31 02:26:34;;;;;;;;;;;;;;;;;;1265292;23;19905;-20
2023/07/31 02:27:04;;;;;;;;;;;;;;;;;;1271201;23;19911;-17
2023/07/31 02:27:34;;;;;;;;;;;;;;;;;;1271704;23;19943;-21
2023/07/31 02:28:05;;;;;;;;;;;;;;;;;;1271404;23;19992;-21
2023/07/31 02:28:35;;;;;;;;;;;;;;;;;;1271577;23;20359;-18
2023/07/31 02:29:05;;;;;;;;;;;;;;;;;;1271399;23;19987;-17
2023/07/31 02:29:35;;;;;;;;;;;;;;;;;;1271686;23;19905;-20
2023/07/31 02:30:06;;;;;;;;;;;;;;;;;;1271401;23;19912;-18
2023/07/31 02:30:36;;;;;;;;;;;;;;;;;;1271511;23;19912;-20
2023/07/31 02:31:06;;;;;;;;;;;;;;;;;;1271388;23;19905;-18
2023/07/31 02:31:36;;;;;;;;;;;;;;;;;;1271459;23;19905;-21
2023/07/31 02:32:06;;;;;;;;;;;;;;;;;;1271340;23;19912;-19
2023/07/31 02:32:37;;;;;;;;;;;;;;;;;;1271626;23;19905;-21
2023/07/31 02:33:07;;;;;;;;;;;;;;;;;;1271500;23;19969;-18
2023/07/31 02:33:37;;;;;;;;;;;;;;;;;;1271543;23;19905;-21
2023/07/31 02:34:07;;;;;;;;;;;;;;;;;;1271542;23;19919;-21
2023/07/31 02:34:38;;;;;;;;;;;;;;;;;;1271383;23;19912;-21
2023/07/31 02:35:08;;;;;;;;;;;;;;;;;;1271213;23;19936;-21
2023/07/31 02:35:38;;;;;;;;;;;;;;;;;;1271594;23;19958;-21
2023/07/31 02:36:09;;;;;;;;;;;;;;;;;;1271270;23;19958;-21
2023/07/31 02:36:39;;;;;;;;;;;;;;;;;;1271634;23;19905;-16
2023/07/31 02:37:09;;;;;;;;;;;;;;;;;;1271415;23;20185;-21
2023/07/31 02:37:39;;;;;;;;;;;;;;;;;;1271758;23;19904;-19
2023/07/31 02:38:10;;;;;;;;;;;;;;;;;;1271443;23;19904;-21
2023/07/31 02:38:40;;;;;;;;;;;;;;;;;;1271642;23;19905;-19
2023/07/31 02:39:10;;;;;;;;;;;;;;;;;;1271603;23;19909;-18
2023/07/31 02:39:40;;;;;;;;;;;;;;;;;;1271834;23;19905;-17
2023/07/31 02:40:11;;;;;;;;;;;;;;;;;;1271330;23;19911;-20
2023/07/31 02:40:41;;;;;;;;;;;;;;;;;;1271625;23;19913;-19
2023/07/31 02:41:11;;;;;;;;;;;;;;;;;;1264930;23;19995;-20
2023/07/31 02:41:41;;;;;;;;;;;;;;;;;;1265268;23;20300;-18
2023/07/31 02:42:12;;;;;;;;;;;;;;;;;;1265071;23;19996;-22
2023/07/31 02:42:42;;;;;;;;;;;;;;;;;;1265248;23;19944;-19
2023/07/31 02:43:12;;;;;;;;;;;;;;;;;;1271476;23;19987;-21
2023/07/31 02:43:42;;;;;;;;;;;;;;;;;;1271565;23;19909;-21
2023/07/31 02:44:14;;;;;;;;;;;;;;;;;;1271434;23;20335;-17
2023/07/31 02:44:44;;;;;;;;;;;;;;;;;;1271337;23;19916;-19
2023/07/31 02:45:14;;;;;;;;;;;;;;;;;;1271457;23;20237;-22
2023/07/31 02:45:44;;;;;;;;;;;;;;;;;;1271696;23;19932;-17
2023/07/31 02:46:15;;;;;;;;;;;;;;;;;;1271344;23;19961;-18
2023/07/31 02:46:45;;;;;;;;;;;;;;;;;;1271070;23;19908;-18
2023/07/31 02:47:15;;;;;;;;;;;;;;;;;;1270908;23;19915;-20
2023/07/31 02:47:45;;;;;;;;;;;;;;;;;;1271545;23;19999;-19
2023/07/31 02:48:16;;;;;;;;;;;;;;;;;;1271346;23;19905;-19
2023/07/31 02:48:46;;;;;;;;;;;;;;;;;;1271497;23;19940;-20
2023/07/31 02:49:16;;;;;;;;;;;;;;;;;;1271539;23;19905;-19
2023/07/31 02:49:46;;;;;;;;;;;;;;;;;;1270077;23;19919;-20
2023/07/31 02:50:17;;;;;;;;;;;;;;;;;;1269708;23;19912;-20
2023/07/31 02:50:47;;;;;;;;;;;;;;;;;;1271237;23;19958;-21
2023/07/31 02:51:17;;;;;;;;;;;;;;;;;;1271372;23;19904;-21
2023/07/31 02:51:47;;;;;;;;;;;;;;;;;;1271240;23;20606;-20
2023/07/31 02:52:18;;;;;;;;;;;;;;;;;;1271157;23;19920;-20
2023/07/31 02:52:48;;;;;;;;;;;;;;;;;;1271150;23;19912;-22
2023/07/31 02:53:18;;;;;;;;;;;;;;;;;;1271246;23;19934;-18
2023/07/31 02:53:49;;;;;;;;;;;;;;;;;;1271363;23;20226;-20
2023/07/31 02:54:21;;;;;;;;;;;;;;;;;;1270516;23;20321;-18
2023/07/31 02:54:51;;;;;;;;;;;;;;;;;;1270658;23;19995;-20
2023/07/31 02:55:21;;;;;;;;;;;;;;;;;;1271640;23;20312;-17
2023/07/31 02:55:52;;;;;;;;;;;;;;;;;;1271314;23;19970;-19
2023/07/31 02:56:22;;;;;;;;;;;;;;;;;;1271587;23;19904;-19
2023/07/31 02:56:52;;;;;;;;;;;;;;;;;;1271201;23;19905;-19
2023/07/31 02:57:22;;;;;;;;;;;;;;;;;;1271409;23;19912;-19
2023/07/31 02:57:53;;;;;;;;;;;;;;;;;;1271229;23;19905;-20
2023/07/31 02:58:23;;;;;;;;;;;;;;;;;;1271604;23;19905;-17
2023/07/31 02:58:53;;;;;;;;;;;;;;;;;;1271090;23;19905;-20
2023/07/31 02:59:25;;;;;;;;;;;;;;;;;;1271641;23;19905;-21
2023/07/31 02:59:55;;;;;;;;;;;;;;;;;;1271315;23;19909;-21
2023/07/31 03:00:25;;;;;;;;;;;;;;;;;;1271355;23;19912;-19
2023/07/31 03:00:55;;;;;;;;;;;;;;;;;;1264857;23;19912;-20
2023/07/31 03:01:26;;;;;;;;;;;;;;;;;;1265246;23;19905;-20
2023/07/31 03:01:56;;;;;;;;;;;;;;;;;;1264941;23;19944;-21
2023/07/31 03:02:26;;;;;;;;;;;;;;;;;;1264912;23;19988;-19
2023/07/31 03:02:56;;;;;;;;;;;;;;;;;;1271319;23;19904;-18
2023/07/31 03:03:27;;;;;;;;;;;;;;;;;;1271604;23;19905;-20
2023/07/31 03:03:57;;;;;;;;;;;;;;;;;;1271518;23;19904;-20
2023/07/31 03:04:27;;;;;;;;;;;;;;;;;;1271542;23;19950;-17
2023/07/31 03:04:57;;;;;;;;;;;;;;;;;;1271374;23;19914;-19
2023/07/31 03:05:28;;;;;;;;;;;;;;;;;;1271645;23;19913;-19
2023/07/31 03:05:58;;;;;;;;;;;;;;;;;;1271226;23;19919;-22
2023/07/31 03:06:28;;;;;;;;;;;;;;;;;;1271597;23;20291;-22
2023/07/31 03:06:58;;;;;;;;;;;;;;;;;;1271394;23;20003;-18
2023/07/31 03:07:30;;;;;;;;;;;;;;;;;;1271316;23;19936;-22
2023/07/31 03:08:00;;;;;;;;;;;;;;;;;;1271320;23;19911;-20
2023/07/31 03:08:30;;;;;;;;;;;;;;;;;;1271467;23;19912;-23
2023/07/31 03:09:00;;;;;;;;;;;;;;;;;;1271299;23;19904;-20
2023/07/31 03:09:31;;;;;;;;;;;;;;;;;;1271566;23;19919;-21
2023/07/31 03:10:01;;;;;;;;;;;;;;;;;;1271384;23;19904;-20
2023/07/31 03:10:31;;;;;;;;;;;;;;;;;;1271206;23;19916;-19
2023/07/31 03:11:01;;;;;;;;;;;;;;;;;;1271305;23;19911;-22
2023/07/31 03:11:32;;;;;;;;;;;;;;;;;;1271581;23;19905;-16
2023/07/31 03:12:03;;;;;;;;;;;;;;;;;;1271294;23;19911;-20
2023/07/31 03:12:33;;;;;;;;;;;;;;;;;;1271511;23;19958;-20
2023/07/31 03:13:03;;;;;;;;;;;;;;;;;;1271587;23;19962;-16
2023/07/31 03:13:33;;;;;;;;;;;;;;;;;;1271771;23;19904;-18
2023/07/31 03:14:04;;;;;;;;;;;;;;;;;;1271814;23;19912;-20
2023/07/31 03:14:34;;;;;;;;;;;;;;;;;;1271858;23;19905;-17
2023/07/31 03:15:04;;;;;;;;;;;;;;;;;;1271701;23;19905;-19
2023/07/31 03:15:34;;;;;;;;;;;;;;;;;;1271816;23;19935;-19
2023/07/31 03:16:05;;;;;;;;;;;;;;;;;;1271473;23;19932;-17
2023/07/31 03:16:35;;;;;;;;;;;;;;;;;;1271640;23;19988;-18
2023/07/31 03:17:05;;;;;;;;;;;;;;;;;;1264985;23;20325;-21
2023/07/31 03:17:35;;;;;;;;;;;;;;;;;;1265501;23;20633;-19
2023/07/31 03:18:05;;;;;;;;;;;;;;;;;;1265248;23;19927;-20
2023/07/31 03:18:36;;;;;;;;;;;;;;;;;;1265302;23;19988;-18
2023/07/31 03:19:06;;;;;;;;;;;;;;;;;;1271619;23;19905;-22
2023/07/31 03:19:36;;;;;;;;;;;;;;;;;;1271972;23;19905;-21
2023/07/31 03:20:06;;;;;;;;;;;;;;;;;;1271056;23;19991;-21
2023/07/31 03:20:37;;;;;;;;;;;;;;;;;;1271792;23;19970;-19
2023/07/31 03:21:07;;;;;;;;;;;;;;;;;;1271379;23;19912;-17
2023/07/31 03:21:37;;;;;;;;;;;;;;;;;;1265321;23;19912;-21
2023/07/31 03:22:07;;;;;;;;;;;;;;;;;;1265134;23;19913;-21
2023/07/31 03:22:38;;;;;;;;;;;;;;;;;;1265353;23;19913;-20
2023/07/31 03:23:08;;;;;;;;;;;;;;;;;;1265184;23;19992;-22
2023/07/31 03:23:38;;;;;;;;;;;;;;;;;;1271826;23;19904;-19
2023/07/31 03:24:08;;;;;;;;;;;;;;;;;;1271667;23;20000;-20
2023/07/31 03:24:39;;;;;;;;;;;;;;;;;;1271743;23;19947;-19
2023/07/31 03:25:10;;;;;;;;;;;;;;;;;;1271517;23;20099;-21
2023/07/31 03:25:40;;;;;;;;;;;;;;;;;;1271922;23;19905;-22
2023/07/31 03:26:10;;;;;;;;;;;;;;;;;;1271554;23;19905;-22
2023/07/31 03:26:43;;;;;;;;;;;;;;;;;;1265150;23;20362;-19